sensor_id;sensor_type;location;lat;lon;timestamp;P1;durP1;ratioP1;P2;durP2;ratioP2
69569;SDS011;56781;42.292;23.146;2023-04-25T00:01:40;8.32;;;3.72;;
69569;SDS011;56781;42.292;23.146;2023-04-25T00:04:08;6.85;;;3.50;;
69569;SDS011;56781;42.292;23.146;2023-04-25T00:06:36;5.93;;;3.00;;
69569;SDS011;56781;42.292;23.146;2023-04-25T00:09:04;7.05;;;3.08;;
69569;SDS011;56781;42.292;23.146;2023-04-25T00:11:34;6.70;;;3.35;;
69569;SDS011;56781;42.292;23.146;2023-04-25T00:14:01;6.50;;;3.50;;
69569;SDS011;56781;42.292;23.146;2023-04-25T00:16:29;7.38;;;3.17;;
69569;SDS011;56781;42.292;23.146;2023-04-25T00:19:00;6.37;;;2.97;;
69569;SDS011;56781;42.292;23.146;2023-04-25T00:21:30;7.70;;;3.05;;
69569;SDS011;56781;42.292;23.146;2023-04-25T00:23:58;5.68;;;3.10;;
69569;SDS011;56781;42.292;23.146;2023-04-25T00:26:25;8.95;;;3.50;;
69569;SDS011;56781;42.292;23.146;2023-04-25T00:28:53;6.03;;;3.03;;
69569;SDS011;56781;42.292;23.146;2023-04-25T00:31:20;5.83;;;3.00;;
69569;SDS011;56781;42.292;23.146;2023-04-25T00:33:48;8.10;;;3.35;;
69569;SDS011;56781;42.292;23.146;2023-04-25T00:36:15;7.90;;;3.60;;
69569;SDS011;56781;42.292;23.146;2023-04-25T00:38:43;43.30;;;20.98;;
69569;SDS011;56781;42.292;23.146;2023-04-25T00:41:10;12.70;;;7.40;;
69569;SDS011;56781;42.292;23.146;2023-04-25T00:43:38;59.10;;;32.70;;
69569;SDS011;56781;42.292;23.146;2023-04-25T00:46:06;23.35;;;14.00;;
69569;SDS011;56781;42.292;23.146;2023-04-25T00:48:33;10.43;;;6.60;;
69569;SDS011;56781;42.292;23.146;2023-04-25T00:51:01;7.07;;;3.90;;
69569;SDS011;56781;42.292;23.146;2023-04-25T00:53:28;7.18;;;3.15;;
69569;SDS011;56781;42.292;23.146;2023-04-25T00:55:57;6.77;;;3.33;;
69569;SDS011;56781;42.292;23.146;2023-04-25T00:58:24;6.93;;;3.35;;
69569;SDS011;56781;42.292;23.146;2023-04-25T01:00:52;5.57;;;3.20;;
69569;SDS011;56781;42.292;23.146;2023-04-25T01:03:19;6.88;;;3.50;;
69569;SDS011;56781;42.292;23.146;2023-04-25T01:05:47;9.30;;;4.30;;
69569;SDS011;56781;42.292;23.146;2023-04-25T01:08:15;8.80;;;4.27;;
69569;SDS011;56781;42.292;23.146;2023-04-25T01:10:42;9.68;;;4.95;;
69569;SDS011;56781;42.292;23.146;2023-04-25T01:13:09;9.75;;;6.40;;
69569;SDS011;56781;42.292;23.146;2023-04-25T01:15:37;9.75;;;6.05;;
69569;SDS011;56781;42.292;23.146;2023-04-25T01:18:04;7.57;;;3.97;;
69569;SDS011;56781;42.292;23.146;2023-04-25T01:20:33;8.23;;;4.60;;
69569;SDS011;56781;42.292;23.146;2023-04-25T01:23:00;7.57;;;3.83;;
69569;SDS011;56781;42.292;23.146;2023-04-25T01:25:31;9.27;;;4.70;;
69569;SDS011;56781;42.292;23.146;2023-04-25T01:27:59;10.73;;;3.97;;
69569;SDS011;56781;42.292;23.146;2023-04-25T01:30:26;6.90;;;3.83;;
69569;SDS011;56781;42.292;23.146;2023-04-25T01:32:55;7.20;;;3.90;;
69569;SDS011;56781;42.292;23.146;2023-04-25T01:35:23;7.20;;;3.97;;
69569;SDS011;56781;42.292;23.146;2023-04-25T01:37:50;7.28;;;4.00;;
69569;SDS011;56781;42.292;23.146;2023-04-25T01:40:18;8.38;;;4.25;;
69569;SDS011;56781;42.292;23.146;2023-04-25T01:42:47;7.55;;;4.30;;
69569;SDS011;56781;42.292;23.146;2023-04-25T01:45:15;9.63;;;4.80;;
69569;SDS011;56781;42.292;23.146;2023-04-25T01:47:43;9.50;;;4.93;;
69569;SDS011;56781;42.292;23.146;2023-04-25T01:50:16;8.27;;;4.78;;
69569;SDS011;56781;42.292;23.146;2023-04-25T01:52:44;10.52;;;4.30;;
69569;SDS011;56781;42.292;23.146;2023-04-25T01:55:12;9.38;;;5.05;;
69569;SDS011;56781;42.292;23.146;2023-04-25T01:57:39;9.63;;;4.70;;
69569;SDS011;56781;42.292;23.146;2023-04-25T02:00:06;9.23;;;5.30;;
69569;SDS011;56781;42.292;23.146;2023-04-25T02:02:35;9.60;;;5.57;;
69569;SDS011;56781;42.292;23.146;2023-04-25T02:05:02;9.15;;;5.00;;
69569;SDS011;56781;42.292;23.146;2023-04-25T02:07:30;11.18;;;5.20;;
69569;SDS011;56781;42.292;23.146;2023-04-25T02:09:58;9.17;;;5.27;;
69569;SDS011;56781;42.292;23.146;2023-04-25T02:12:26;7.18;;;3.83;;
69569;SDS011;56781;42.292;23.146;2023-04-25T02:14:54;6.30;;;3.20;;
69569;SDS011;56781;42.292;23.146;2023-04-25T02:17:21;6.75;;;3.35;;
69569;SDS011;56781;42.292;23.146;2023-04-25T02:19:48;8.20;;;3.58;;
69569;SDS011;56781;42.292;23.146;2023-04-25T02:22:16;7.00;;;3.73;;
69569;SDS011;56781;42.292;23.146;2023-04-25T02:24:43;7.03;;;3.80;;
69569;SDS011;56781;42.292;23.146;2023-04-25T02:27:12;7.47;;;3.83;;
69569;SDS011;56781;42.292;23.146;2023-04-25T02:29:39;8.63;;;3.45;;
69569;SDS011;56781;42.292;23.146;2023-04-25T02:32:07;6.10;;;3.45;;
69569;SDS011;56781;42.292;23.146;2023-04-25T02:34:34;8.60;;;3.80;;
69569;SDS011;56781;42.292;23.146;2023-04-25T02:37:01;7.80;;;4.00;;
69569;SDS011;56781;42.292;23.146;2023-04-25T02:39:28;8.40;;;3.95;;
69569;SDS011;56781;42.292;23.146;2023-04-25T02:41:56;10.90;;;3.58;;
69569;SDS011;56781;42.292;23.146;2023-04-25T02:44:23;9.88;;;4.05;;
69569;SDS011;56781;42.292;23.146;2023-04-25T02:46:50;7.03;;;3.50;;
69569;SDS011;56781;42.292;23.146;2023-04-25T02:49:17;9.38;;;4.35;;
69569;SDS011;56781;42.292;23.146;2023-04-25T02:51:44;7.55;;;4.63;;
69569;SDS011;56781;42.292;23.146;2023-04-25T02:54:12;10.27;;;5.15;;
69569;SDS011;56781;42.292;23.146;2023-04-25T02:56:39;6.85;;;3.85;;
69569;SDS011;56781;42.292;23.146;2023-04-25T02:59:06;8.30;;;3.80;;
69569;SDS011;56781;42.292;23.146;2023-04-25T03:01:33;6.63;;;3.38;;
69569;SDS011;56781;42.292;23.146;2023-04-25T03:04:00;9.77;;;4.38;;
69569;SDS011;56781;42.292;23.146;2023-04-25T03:06:28;7.35;;;4.07;;
69569;SDS011;56781;42.292;23.146;2023-04-25T03:08:55;11.35;;;4.57;;
69569;SDS011;56781;42.292;23.146;2023-04-25T03:11:24;9.13;;;4.20;;
69569;SDS011;56781;42.292;23.146;2023-04-25T03:13:52;12.82;;;6.78;;
69569;SDS011;56781;42.292;23.146;2023-04-25T03:16:19;10.27;;;5.78;;
69569;SDS011;56781;42.292;23.146;2023-04-25T03:18:46;9.35;;;4.05;;
69569;SDS011;56781;42.292;23.146;2023-04-25T03:21:13;7.25;;;3.58;;
69569;SDS011;56781;42.292;23.146;2023-04-25T03:23:41;8.90;;;3.97;;
69569;SDS011;56781;42.292;23.146;2023-04-25T03:26:08;9.15;;;4.30;;
69569;SDS011;56781;42.292;23.146;2023-04-25T03:28:35;8.45;;;4.05;;
69569;SDS011;56781;42.292;23.146;2023-04-25T03:31:02;8.55;;;3.97;;
69569;SDS011;56781;42.292;23.146;2023-04-25T03:33:29;10.05;;;4.70;;
69569;SDS011;56781;42.292;23.146;2023-04-25T03:35:57;9.77;;;4.90;;
69569;SDS011;56781;42.292;23.146;2023-04-25T03:38:24;11.93;;;5.40;;
69569;SDS011;56781;42.292;23.146;2023-04-25T03:40:51;11.93;;;5.68;;
69569;SDS011;56781;42.292;23.146;2023-04-25T03:43:18;12.45;;;5.93;;
69569;SDS011;56781;42.292;23.146;2023-04-25T03:45:45;10.63;;;5.53;;
69569;SDS011;56781;42.292;23.146;2023-04-25T03:48:13;12.63;;;6.07;;
69569;SDS011;56781;42.292;23.146;2023-04-25T03:50:41;12.30;;;5.90;;
69569;SDS011;56781;42.292;23.146;2023-04-25T03:53:08;10.02;;;5.75;;
69569;SDS011;56781;42.292;23.146;2023-04-25T03:55:35;13.07;;;6.30;;
69569;SDS011;56781;42.292;23.146;2023-04-25T03:58:02;11.27;;;5.05;;
69569;SDS011;56781;42.292;23.146;2023-04-25T04:00:30;8.37;;;4.73;;
69569;SDS011;56781;42.292;23.146;2023-04-25T04:02:57;10.75;;;5.78;;
69569;SDS011;56781;42.292;23.146;2023-04-25T04:05:24;11.10;;;6.18;;
69569;SDS011;56781;42.292;23.146;2023-04-25T04:07:52;9.93;;;5.38;;
69569;SDS011;56781;42.292;23.146;2023-04-25T04:10:19;10.05;;;5.80;;
69569;SDS011;56781;42.292;23.146;2023-04-25T04:12:46;22.60;;;13.10;;
69569;SDS011;56781;42.292;23.146;2023-04-25T04:15:13;25.80;;;14.88;;
69569;SDS011;56781;42.292;23.146;2023-04-25T04:17:41;30.13;;;16.60;;
69569;SDS011;56781;42.292;23.146;2023-04-25T04:20:08;27.33;;;15.43;;
69569;SDS011;56781;42.292;23.146;2023-04-25T04:22:36;10.77;;;5.93;;
69569;SDS011;56781;42.292;23.146;2023-04-25T04:25:03;8.90;;;4.67;;
69569;SDS011;56781;42.292;23.146;2023-04-25T04:27:32;7.95;;;4.60;;
69569;SDS011;56781;42.292;23.146;2023-04-25T04:29:59;10.63;;;5.03;;
69569;SDS011;56781;42.292;23.146;2023-04-25T04:32:27;9.13;;;5.03;;
69569;SDS011;56781;42.292;23.146;2023-04-25T04:34:54;11.25;;;6.05;;
69569;SDS011;56781;42.292;23.146;2023-04-25T04:37:21;19.13;;;13.57;;
69569;SDS011;56781;42.292;23.146;2023-04-25T04:39:49;18.80;;;12.07;;
69569;SDS011;56781;42.292;23.146;2023-04-25T04:42:16;13.45;;;9.15;;
69569;SDS011;56781;42.292;23.146;2023-04-25T04:44:44;14.65;;;8.75;;
69569;SDS011;56781;42.292;23.146;2023-04-25T04:47:11;9.85;;;5.95;;
69569;SDS011;56781;42.292;23.146;2023-04-25T04:49:39;17.07;;;10.23;;
69569;SDS011;56781;42.292;23.146;2023-04-25T04:52:06;10.60;;;5.90;;
69569;SDS011;56781;42.292;23.146;2023-04-25T04:54:33;13.65;;;6.40;;
69569;SDS011;56781;42.292;23.146;2023-04-25T04:57:02;13.43;;;7.55;;
69569;SDS011;56781;42.292;23.146;2023-04-25T04:59:29;10.50;;;5.68;;
69569;SDS011;56781;42.292;23.146;2023-04-25T05:01:56;11.03;;;6.30;;
69569;SDS011;56781;42.292;23.146;2023-04-25T05:04:23;10.90;;;5.47;;
69569;SDS011;56781;42.292;23.146;2023-04-25T05:06:50;9.30;;;5.55;;
69569;SDS011;56781;42.292;23.146;2023-04-25T05:09:18;10.05;;;5.57;;
69569;SDS011;56781;42.292;23.146;2023-04-25T05:11:45;8.60;;;5.32;;
69569;SDS011;56781;42.292;23.146;2023-04-25T05:14:12;8.40;;;4.83;;
69569;SDS011;56781;42.292;23.146;2023-04-25T05:16:40;8.55;;;4.88;;
69569;SDS011;56781;42.292;23.146;2023-04-25T05:19:07;10.05;;;6.20;;
69569;SDS011;56781;42.292;23.146;2023-04-25T05:21:34;11.25;;;6.05;;
69569;SDS011;56781;42.292;23.146;2023-04-25T05:24:01;9.50;;;5.72;;
69569;SDS011;56781;42.292;23.146;2023-04-25T05:26:29;12.50;;;5.57;;
69569;SDS011;56781;42.292;23.146;2023-04-25T05:28:57;11.30;;;5.88;;
69569;SDS011;56781;42.292;23.146;2023-04-25T05:31:25;10.95;;;5.78;;
69569;SDS011;56781;42.292;23.146;2023-04-25T05:33:52;8.23;;;4.85;;
69569;SDS011;56781;42.292;23.146;2023-04-25T05:36:19;8.77;;;5.43;;
69569;SDS011;56781;42.292;23.146;2023-04-25T05:38:47;10.77;;;5.90;;
69569;SDS011;56781;42.292;23.146;2023-04-25T05:41:14;12.68;;;6.55;;
69569;SDS011;56781;42.292;23.146;2023-04-25T05:43:42;10.90;;;6.47;;
69569;SDS011;56781;42.292;23.146;2023-04-25T05:46:13;9.32;;;5.45;;
69569;SDS011;56781;42.292;23.146;2023-04-25T05:48:41;10.60;;;5.40;;
69569;SDS011;56781;42.292;23.146;2023-04-25T05:51:08;9.37;;;5.73;;
69569;SDS011;56781;42.292;23.146;2023-04-25T05:53:35;9.07;;;5.38;;
69569;SDS011;56781;42.292;23.146;2023-04-25T05:56:02;8.57;;;5.22;;
69569;SDS011;56781;42.292;23.146;2023-04-25T05:58:30;9.25;;;4.80;;
69569;SDS011;56781;42.292;23.146;2023-04-25T06:00:57;8.48;;;4.80;;
69569;SDS011;56781;42.292;23.146;2023-04-25T06:03:24;7.30;;;4.50;;
69569;SDS011;56781;42.292;23.146;2023-04-25T06:05:52;11.82;;;4.65;;
69569;SDS011;56781;42.292;23.146;2023-04-25T06:08:19;9.73;;;3.83;;
69569;SDS011;56781;42.292;23.146;2023-04-25T06:10:46;6.10;;;3.40;;
69569;SDS011;56781;42.292;23.146;2023-04-25T06:13:13;6.95;;;3.75;;
69569;SDS011;56781;42.292;23.146;2023-04-25T06:15:41;9.60;;;5.30;;
69569;SDS011;56781;42.292;23.146;2023-04-25T06:18:09;8.55;;;4.25;;
69569;SDS011;56781;42.292;23.146;2023-04-25T06:20:37;6.10;;;3.70;;
69569;SDS011;56781;42.292;23.146;2023-04-25T06:23:04;8.02;;;4.20;;
69569;SDS011;56781;42.292;23.146;2023-04-25T06:25:31;8.60;;;4.20;;
69569;SDS011;56781;42.292;23.146;2023-04-25T06:27:58;8.27;;;4.83;;
69569;SDS011;56781;42.292;23.146;2023-04-25T06:30:26;8.52;;;5.03;;
69569;SDS011;56781;42.292;23.146;2023-04-25T06:32:53;6.53;;;3.92;;
69569;SDS011;56781;42.292;23.146;2023-04-25T06:35:20;8.52;;;4.30;;
69569;SDS011;56781;42.292;23.146;2023-04-25T06:37:47;7.22;;;3.88;;
69569;SDS011;56781;42.292;23.146;2023-04-25T06:40:15;5.03;;;2.70;;
69569;SDS011;56781;42.292;23.146;2023-04-25T06:42:43;7.45;;;3.22;;
69569;SDS011;56781;42.292;23.146;2023-04-25T06:45:10;7.32;;;3.47;;
69569;SDS011;56781;42.292;23.146;2023-04-25T06:47:38;6.60;;;3.40;;
69569;SDS011;56781;42.292;23.146;2023-04-25T06:50:05;4.75;;;3.00;;
69569;SDS011;56781;42.292;23.146;2023-04-25T06:52:32;5.30;;;2.67;;
69569;SDS011;56781;42.292;23.146;2023-04-25T06:55:00;5.80;;;2.72;;
69569;SDS011;56781;42.292;23.146;2023-04-25T06:57:27;5.28;;;2.83;;
69569;SDS011;56781;42.292;23.146;2023-04-25T06:59:54;4.80;;;2.80;;
69569;SDS011;56781;42.292;23.146;2023-04-25T07:02:21;4.57;;;2.50;;
69569;SDS011;56781;42.292;23.146;2023-04-25T07:04:49;4.13;;;2.43;;
69569;SDS011;56781;42.292;23.146;2023-04-25T07:07:16;6.28;;;2.78;;
69569;SDS011;56781;42.292;23.146;2023-04-25T07:09:43;5.28;;;2.13;;
69569;SDS011;56781;42.292;23.146;2023-04-25T07:12:11;4.57;;;2.00;;
69569;SDS011;56781;42.292;23.146;2023-04-25T07:14:38;4.05;;;2.22;;
69569;SDS011;56781;42.292;23.146;2023-04-25T07:17:05;6.23;;;2.90;;
69569;SDS011;56781;42.292;23.146;2023-04-25T07:19:33;3.83;;;1.75;;
69569;SDS011;56781;42.292;23.146;2023-04-25T07:22:01;3.28;;;1.58;;
69569;SDS011;56781;42.292;23.146;2023-04-25T07:24:28;4.53;;;2.08;;
69569;SDS011;56781;42.292;23.146;2023-04-25T07:26:55;3.45;;;1.83;;
69569;SDS011;56781;42.292;23.146;2023-04-25T07:29:22;3.60;;;1.70;;
69569;SDS011;56781;42.292;23.146;2023-04-25T07:31:50;3.35;;;1.60;;
69569;SDS011;56781;42.292;23.146;2023-04-25T07:34:17;4.32;;;2.10;;
69569;SDS011;56781;42.292;23.146;2023-04-25T07:36:44;4.22;;;1.80;;
69569;SDS011;56781;42.292;23.146;2023-04-25T07:39:11;3.90;;;2.00;;
69569;SDS011;56781;42.292;23.146;2023-04-25T07:41:38;4.90;;;1.90;;
69569;SDS011;56781;42.292;23.146;2023-04-25T07:44:06;3.67;;;1.73;;
69569;SDS011;56781;42.292;23.146;2023-04-25T07:46:33;3.55;;;1.77;;
69569;SDS011;56781;42.292;23.146;2023-04-25T07:49:00;4.68;;;1.88;;
69569;SDS011;56781;42.292;23.146;2023-04-25T07:51:27;3.78;;;1.70;;
69569;SDS011;56781;42.292;23.146;2023-04-25T07:53:54;4.73;;;1.50;;
69569;SDS011;56781;42.292;23.146;2023-04-25T07:56:21;4.20;;;2.20;;
69569;SDS011;56781;42.292;23.146;2023-04-25T07:58:48;4.07;;;2.30;;
69569;SDS011;56781;42.292;23.146;2023-04-25T08:01:16;6.80;;;2.58;;
69569;SDS011;56781;42.292;23.146;2023-04-25T08:03:43;5.32;;;1.90;;
69569;SDS011;56781;42.292;23.146;2023-04-25T08:06:11;3.43;;;1.30;;
69569;SDS011;56781;42.292;23.146;2023-04-25T08:08:38;3.20;;;1.40;;
69569;SDS011;56781;42.292;23.146;2023-04-25T08:11:06;6.05;;;1.95;;
69569;SDS011;56781;42.292;23.146;2023-04-25T08:13:33;4.85;;;1.70;;
69569;SDS011;56781;42.292;23.146;2023-04-25T08:16:00;3.60;;;1.85;;
69569;SDS011;56781;42.292;23.146;2023-04-25T08:18:28;4.20;;;2.13;;
69569;SDS011;56781;42.292;23.146;2023-04-25T08:20:55;3.55;;;1.58;;
69569;SDS011;56781;42.292;23.146;2023-04-25T08:23:22;4.30;;;1.67;;
69569;SDS011;56781;42.292;23.146;2023-04-25T08:25:49;3.78;;;1.60;;
69569;SDS011;56781;42.292;23.146;2023-04-25T08:28:16;4.18;;;1.75;;
69569;SDS011;56781;42.292;23.146;2023-04-25T08:30:43;3.10;;;1.60;;
69569;SDS011;56781;42.292;23.146;2023-04-25T08:33:10;3.35;;;1.48;;
69569;SDS011;56781;42.292;23.146;2023-04-25T08:35:38;3.33;;;1.73;;
69569;SDS011;56781;42.292;23.146;2023-04-25T08:38:05;2.78;;;1.50;;
69569;SDS011;56781;42.292;23.146;2023-04-25T08:40:34;3.20;;;1.70;;
69569;SDS011;56781;42.292;23.146;2023-04-25T08:43:08;3.70;;;1.50;;
69569;SDS011;56781;42.292;23.146;2023-04-25T08:45:39;3.65;;;1.38;;
69569;SDS011;56781;42.292;23.146;2023-04-25T08:48:13;3.47;;;1.77;;
69569;SDS011;56781;42.292;23.146;2023-04-25T08:50:48;3.00;;;1.40;;
69569;SDS011;56781;42.292;23.146;2023-04-25T08:53:21;7.32;;;1.75;;
69569;SDS011;56781;42.292;23.146;2023-04-25T08:55:54;3.27;;;1.60;;
69569;SDS011;56781;42.292;23.146;2023-04-25T08:58:23;4.63;;;2.42;;
69569;SDS011;56781;42.292;23.146;2023-04-25T09:00:51;3.72;;;1.45;;
69569;SDS011;56781;42.292;23.146;2023-04-25T09:03:19;4.28;;;1.95;;
69569;SDS011;56781;42.292;23.146;2023-04-25T09:05:46;3.15;;;1.60;;
69569;SDS011;56781;42.292;23.146;2023-04-25T09:08:14;4.20;;;1.77;;
69569;SDS011;56781;42.292;23.146;2023-04-25T09:10:41;4.45;;;1.80;;
69569;SDS011;56781;42.292;23.146;2023-04-25T09:13:09;5.47;;;2.20;;
69569;SDS011;56781;42.292;23.146;2023-04-25T09:15:49;4.50;;;1.75;;
69569;SDS011;56781;42.292;23.146;2023-04-25T09:18:28;6.70;;;1.80;;
69569;SDS011;56781;42.292;23.146;2023-04-25T09:20:58;3.20;;;1.77;;
69569;SDS011;56781;42.292;23.146;2023-04-25T09:23:46;3.13;;;1.50;;
69569;SDS011;56781;42.292;23.146;2023-04-25T09:26:15;3.20;;;1.60;;
69569;SDS011;56781;42.292;23.146;2023-04-25T09:28:45;4.47;;;1.80;;
69569;SDS011;56781;42.292;23.146;2023-04-25T09:31:23;4.32;;;2.03;;
69569;SDS011;56781;42.292;23.146;2023-04-25T09:33:58;2.30;;;1.00;;
69569;SDS011;56781;42.292;23.146;2023-04-25T09:36:27;3.20;;;1.00;;
69569;SDS011;56781;42.292;23.146;2023-04-25T09:38:57;3.22;;;1.25;;
69569;SDS011;56781;42.292;23.146;2023-04-25T09:41:27;2.88;;;1.10;;
69569;SDS011;56781;42.292;23.146;2023-04-25T09:43:56;3.42;;;1.08;;
69569;SDS011;56781;42.292;23.146;2023-04-25T09:46:32;3.67;;;1.20;;
69569;SDS011;56781;42.292;23.146;2023-04-25T09:49:06;3.08;;;1.30;;
69569;SDS011;56781;42.292;23.146;2023-04-25T09:51:34;3.28;;;1.42;;
69569;SDS011;56781;42.292;23.146;2023-04-25T09:54:01;3.33;;;1.17;;
69569;SDS011;56781;42.292;23.146;2023-04-25T09:56:29;2.50;;;1.08;;
69569;SDS011;56781;42.292;23.146;2023-04-25T09:59:02;3.33;;;1.07;;
69569;SDS011;56781;42.292;23.146;2023-04-25T10:01:30;3.13;;;1.20;;
69569;SDS011;56781;42.292;23.146;2023-04-25T10:03:58;2.95;;;1.30;;
69569;SDS011;56781;42.292;23.146;2023-04-25T10:06:27;4.35;;;1.60;;
69569;SDS011;56781;42.292;23.146;2023-04-25T10:08:56;3.88;;;1.55;;
69569;SDS011;56781;42.292;23.146;2023-04-25T10:11:23;8.10;;;3.03;;
69569;SDS011;56781;42.292;23.146;2023-04-25T10:13:52;4.30;;;1.60;;
69569;SDS011;56781;42.292;23.146;2023-04-25T10:16:20;3.67;;;1.58;;
69569;SDS011;56781;42.292;23.146;2023-04-25T10:18:48;3.42;;;1.40;;
69569;SDS011;56781;42.292;23.146;2023-04-25T10:21:17;3.40;;;1.50;;
69569;SDS011;56781;42.292;23.146;2023-04-25T10:23:44;5.30;;;1.50;;
69569;SDS011;56781;42.292;23.146;2023-04-25T10:26:13;4.03;;;1.20;;
69569;SDS011;56781;42.292;23.146;2023-04-25T10:28:57;2.70;;;0.80;;
69569;SDS011;56781;42.292;23.146;2023-04-25T10:31:31;3.85;;;1.67;;
69569;SDS011;56781;42.292;23.146;2023-04-25T10:33:59;4.80;;;1.80;;
69569;SDS011;56781;42.292;23.146;2023-04-25T10:36:30;5.40;;;2.07;;
69569;SDS011;56781;42.292;23.146;2023-04-25T10:39:02;2.88;;;1.15;;
69569;SDS011;56781;42.292;23.146;2023-04-25T10:41:48;2.70;;;1.20;;
69569;SDS011;56781;42.292;23.146;2023-04-25T10:44:20;3.10;;;1.15;;
69569;SDS011;56781;42.292;23.146;2023-04-25T10:46:47;2.88;;;1.20;;
69569;SDS011;56781;42.292;23.146;2023-04-25T10:49:30;3.03;;;1.03;;
69569;SDS011;56781;42.292;23.146;2023-04-25T10:52:12;3.13;;;0.90;;
69569;SDS011;56781;42.292;23.146;2023-04-25T10:54:48;3.10;;;1.00;;
69569;SDS011;56781;42.292;23.146;2023-04-25T10:57:28;3.50;;;1.48;;
69569;SDS011;56781;42.292;23.146;2023-04-25T11:00:01;6.85;;;2.65;;
69569;SDS011;56781;42.292;23.146;2023-04-25T11:02:52;3.27;;;1.63;;
69569;SDS011;56781;42.292;23.146;2023-04-25T11:05:22;3.05;;;1.10;;
69569;SDS011;56781;42.292;23.146;2023-04-25T11:07:53;3.10;;;1.40;;
69569;SDS011;56781;42.292;23.146;2023-04-25T11:10:32;4.78;;;1.75;;
69569;SDS011;56781;42.292;23.146;2023-04-25T11:13:03;4.18;;;1.40;;
69569;SDS011;56781;42.292;23.146;2023-04-25T11:15:31;3.57;;;1.00;;
69569;SDS011;56781;42.292;23.146;2023-04-25T11:17:58;3.78;;;1.08;;
69569;SDS011;56781;42.292;23.146;2023-04-25T11:20:25;5.57;;;1.30;;
69569;SDS011;56781;42.292;23.146;2023-04-25T11:22:57;5.75;;;1.33;;
69569;SDS011;56781;42.292;23.146;2023-04-25T11:25:27;2.50;;;1.00;;
69569;SDS011;56781;42.292;23.146;2023-04-25T11:27:56;8.70;;;1.70;;
69569;SDS011;56781;42.292;23.146;2023-04-25T11:30:25;16.73;;;2.42;;
69569;SDS011;56781;42.292;23.146;2023-04-25T11:32:53;10.02;;;1.83;;
69569;SDS011;56781;42.292;23.146;2023-04-25T11:35:20;4.28;;;1.40;;
69569;SDS011;56781;42.292;23.146;2023-04-25T11:37:49;4.07;;;1.70;;
69569;SDS011;56781;42.292;23.146;2023-04-25T11:40:17;3.30;;;1.33;;
69569;SDS011;56781;42.292;23.146;2023-04-25T11:42:45;3.60;;;1.48;;
69569;SDS011;56781;42.292;23.146;2023-04-25T11:45:13;3.50;;;1.20;;
69569;SDS011;56781;42.292;23.146;2023-04-25T11:47:41;2.75;;;1.00;;
69569;SDS011;56781;42.292;23.146;2023-04-25T11:50:09;2.55;;;1.10;;
69569;SDS011;56781;42.292;23.146;2023-04-25T11:55:08;4.43;;;1.20;;
69569;SDS011;56781;42.292;23.146;2023-04-25T11:57:37;3.15;;;1.25;;
69569;SDS011;56781;42.292;23.146;2023-04-25T12:00:07;2.47;;;1.17;;
69569;SDS011;56781;42.292;23.146;2023-04-25T12:02:35;2.78;;;1.08;;
69569;SDS011;56781;42.292;23.146;2023-04-25T12:05:06;6.67;;;1.30;;
69569;SDS011;56781;42.292;23.146;2023-04-25T12:07:56;7.22;;;1.70;;
69569;SDS011;56781;42.292;23.146;2023-04-25T12:10:24;6.30;;;1.45;;
69569;SDS011;56781;42.292;23.146;2023-04-25T12:12:52;7.50;;;2.40;;
69569;SDS011;56781;42.292;23.146;2023-04-25T12:15:24;5.95;;;2.60;;
69569;SDS011;56781;42.292;23.146;2023-04-25T12:17:53;11.30;;;3.93;;
69569;SDS011;56781;42.292;23.146;2023-04-25T12:20:23;10.65;;;4.50;;
69569;SDS011;56781;42.292;23.146;2023-04-25T12:22:52;5.93;;;1.90;;
69569;SDS011;56781;42.292;23.146;2023-04-25T12:25:35;3.60;;;1.00;;
69569;SDS011;56781;42.292;23.146;2023-04-25T12:28:13;5.82;;;2.15;;
69569;SDS011;56781;42.292;23.146;2023-04-25T12:33:25;2.97;;;1.20;;
69569;SDS011;56781;42.292;23.146;2023-04-25T12:35:53;3.10;;;1.10;;
69569;SDS011;56781;42.292;23.146;2023-04-25T12:38:23;3.47;;;1.40;;
69569;SDS011;56781;42.292;23.146;2023-04-25T12:40:53;2.90;;;1.30;;
69569;SDS011;56781;42.292;23.146;2023-04-25T12:43:20;4.20;;;1.13;;
69569;SDS011;56781;42.292;23.146;2023-04-25T12:45:50;2.60;;;1.10;;
69569;SDS011;56781;42.292;23.146;2023-04-25T12:48:19;3.42;;;1.70;;
69569;SDS011;56781;42.292;23.146;2023-04-25T12:50:47;2.90;;;1.40;;
69569;SDS011;56781;42.292;23.146;2023-04-25T12:53:18;3.13;;;0.90;;
69569;SDS011;56781;42.292;23.146;2023-04-25T12:55:47;3.17;;;1.20;;
69569;SDS011;56781;42.292;23.146;2023-04-25T12:58:17;3.33;;;1.20;;
69569;SDS011;56781;42.292;23.146;2023-04-25T13:00:45;3.30;;;1.20;;
69569;SDS011;56781;42.292;23.146;2023-04-25T13:03:13;2.92;;;1.02;;
69569;SDS011;56781;42.292;23.146;2023-04-25T13:05:40;4.65;;;1.00;;
69569;SDS011;56781;42.292;23.146;2023-04-25T13:08:08;4.63;;;1.20;;
69569;SDS011;56781;42.292;23.146;2023-04-25T13:10:36;18.77;;;2.05;;
69569;SDS011;56781;42.292;23.146;2023-04-25T13:13:05;41.97;;;3.42;;
69569;SDS011;56781;42.292;23.146;2023-04-25T13:15:32;24.80;;;3.70;;
69569;SDS011;56781;42.292;23.146;2023-04-25T13:18:00;33.20;;;3.80;;
69569;SDS011;56781;42.292;23.146;2023-04-25T13:20:27;13.20;;;1.90;;
69569;SDS011;56781;42.292;23.146;2023-04-25T13:22:54;7.65;;;3.22;;
69569;SDS011;56781;42.292;23.146;2023-04-25T13:25:21;2.67;;;1.00;;
69569;SDS011;56781;42.292;23.146;2023-04-25T13:27:49;2.47;;;1.08;;
69569;SDS011;56781;42.292;23.146;2023-04-25T13:30:16;4.20;;;1.55;;
69569;SDS011;56781;42.292;23.146;2023-04-25T13:32:43;7.93;;;1.90;;
69569;SDS011;56781;42.292;23.146;2023-04-25T13:35:11;4.30;;;1.63;;
69569;SDS011;56781;42.292;23.146;2023-04-25T13:37:40;4.90;;;1.83;;
69569;SDS011;56781;42.292;23.146;2023-04-25T13:40:09;5.43;;;2.30;;
69569;SDS011;56781;42.292;23.146;2023-04-25T13:42:37;6.38;;;2.75;;
69569;SDS011;56781;42.292;23.146;2023-04-25T13:45:05;7.53;;;2.80;;
69569;SDS011;56781;42.292;23.146;2023-04-25T13:47:34;6.05;;;2.42;;
69569;SDS011;56781;42.292;23.146;2023-04-25T13:50:02;4.22;;;1.60;;
69569;SDS011;56781;42.292;23.146;2023-04-25T13:52:30;4.07;;;1.70;;
69569;SDS011;56781;42.292;23.146;2023-04-25T13:54:57;6.10;;;2.15;;
69569;SDS011;56781;42.292;23.146;2023-04-25T13:57:24;6.23;;;3.20;;
69569;SDS011;56781;42.292;23.146;2023-04-25T13:59:52;7.45;;;3.63;;
69569;SDS011;56781;42.292;23.146;2023-04-25T14:02:20;8.57;;;3.72;;
69569;SDS011;56781;42.292;23.146;2023-04-25T14:04:47;7.90;;;2.50;;
69569;SDS011;56781;42.292;23.146;2023-04-25T14:07:14;5.72;;;1.83;;
69569;SDS011;56781;42.292;23.146;2023-04-25T14:09:45;6.90;;;2.47;;
69569;SDS011;56781;42.292;23.146;2023-04-25T14:12:12;3.75;;;1.23;;
69569;SDS011;56781;42.292;23.146;2023-04-25T14:14:40;4.07;;;1.50;;
69569;SDS011;56781;42.292;23.146;2023-04-25T14:17:08;3.75;;;1.10;;
69569;SDS011;56781;42.292;23.146;2023-04-25T14:19:35;3.50;;;1.17;;
69569;SDS011;56781;42.292;23.146;2023-04-25T14:22:05;25.47;;;13.33;;
69569;SDS011;56781;42.292;23.146;2023-04-25T14:24:32;5.00;;;2.42;;
69569;SDS011;56781;42.292;23.146;2023-04-25T14:26:59;5.20;;;1.60;;
69569;SDS011;56781;42.292;23.146;2023-04-25T14:29:27;4.32;;;1.60;;
69569;SDS011;56781;42.292;23.146;2023-04-25T14:31:54;4.55;;;1.80;;
69569;SDS011;56781;42.292;23.146;2023-04-25T14:34:23;4.90;;;1.63;;
69569;SDS011;56781;42.292;23.146;2023-04-25T14:36:53;3.53;;;1.45;;
69569;SDS011;56781;42.292;23.146;2023-04-25T14:39:21;3.08;;;1.40;;
69569;SDS011;56781;42.292;23.146;2023-04-25T14:41:48;2.97;;;1.30;;
69569;SDS011;56781;42.292;23.146;2023-04-25T14:44:15;18.15;;;7.10;;